createdAt,value
2023-05-02T00:02:10.365Z,81.71
2023-05-02T00:04:37.578Z,81.57
2023-05-02T00:07:04.778Z,81.67
2023-05-02T00:09:31.762Z,81.83
2023-05-02T00:11:59.150Z,82.24
2023-05-02T00:14:26.225Z,82.12
2023-05-02T00:16:53.880Z,82.22
2023-05-02T00:19:20.907Z,82.18
2023-05-02T00:21:51.648Z,82.49
2023-05-02T00:24:19.213Z,82.75
2023-05-02T00:26:46.492Z,82.64
2023-05-02T00:29:15.336Z,82.77
2023-05-02T00:31:45.191Z,82.62
2023-05-02T00:34:14.982Z,82.65
2023-05-02T00:36:42.316Z,82.81
2023-05-02T00:39:09.912Z,83.06
2023-05-02T00:41:37.391Z,83.17
2023-05-02T00:44:04.465Z,82.97
2023-05-02T00:46:31.623Z,83.19
2023-05-02T00:48:59.023Z,82.74
2023-05-02T00:51:27.481Z,83.21
2023-05-02T00:53:54.762Z,83.32
2023-05-02T00:56:21.868Z,83.29
2023-05-02T00:58:48.800Z,83.89
2023-05-02T01:01:38.180Z,83.99
2023-05-02T01:04:22.379Z,84.23
2023-05-02T01:07:06.708Z,84.42
2023-05-02T01:10:18.269Z,84.93
2023-05-02T01:13:29.787Z,85.87
2023-05-02T01:15:58.600Z,85.54
2023-05-02T01:18:30.310Z,86.07
2023-05-02T01:21:10.494Z,86.73
2023-05-02T01:24:01.554Z,86.89
2023-05-02T01:26:43.999Z,87.59
2023-05-02T01:29:12.129Z,88.16
2023-05-02T01:31:51.252Z,88.28
2023-05-02T01:34:23.149Z,88.69
2023-05-02T01:36:51.470Z,89.01
2023-05-02T01:39:23.131Z,89.26
2023-05-02T01:41:55.023Z,89.55
2023-05-02T01:44:23.116Z,89.98
2023-05-02T01:46:51.648Z,90.31
2023-05-02T01:49:19.618Z,90.80
2023-05-02T01:51:48.477Z,91.23
2023-05-02T01:54:17.887Z,91.30
2023-05-02T01:56:46.728Z,91.48
2023-05-02T01:59:17.520Z,91.69
2023-05-02T02:01:45.445Z,92.05
2023-05-02T02:04:22.854Z,92.23
2023-05-02T02:07:06.235Z,92.41
2023-05-02T02:09:36.289Z,92.78
2023-05-02T02:12:09.941Z,92.72
2023-05-02T02:14:38.901Z,92.86
2023-05-02T02:17:15.861Z,93.03
2023-05-02T02:19:44.508Z,93.40
2023-05-02T02:22:13.953Z,93.26
2023-05-02T02:24:41.531Z,93.43
2023-05-02T02:27:09.135Z,93.57
2023-05-02T02:29:36.264Z,93.60
2023-05-02T02:32:03.389Z,93.67
2023-05-02T02:34:30.733Z,93.80
2023-05-02T02:37:01.640Z,93.65
2023-05-02T02:39:43.797Z,93.86
2023-05-02T02:42:43.895Z,93.85
2023-05-02T02:45:38.516Z,93.63
2023-05-02T02:48:32.790Z,93.91
2023-05-02T02:51:35.753Z,93.60
2023-05-02T02:54:26.984Z,93.47
2023-05-02T02:57:05.006Z,93.19
2023-05-02T02:59:37.738Z,93.25
2023-05-02T03:02:09.661Z,93.10
2023-05-02T03:04:39.636Z,92.75
2023-05-02T03:07:08.011Z,92.45
2023-05-02T03:09:45.593Z,92.26
2023-05-02T03:12:17.425Z,92.02
2023-05-02T03:14:46.103Z,91.67
2023-05-02T03:17:13.316Z,91.44
2023-05-02T03:19:41.372Z,91.23
2023-05-02T03:22:08.739Z,91.10
2023-05-02T03:24:40.736Z,90.57
2023-05-02T03:27:08.737Z,90.35
2023-05-02T03:29:42.457Z,89.82
2023-05-02T03:32:11.556Z,89.52
2023-05-02T03:34:41.843Z,89.25
2023-05-02T03:37:09.380Z,88.60
2023-05-02T03:39:39.449Z,88.28
2023-05-02T03:42:06.488Z,87.90
2023-05-02T03:44:33.557Z,87.32
2023-05-02T03:47:00.821Z,86.80
2023-05-02T03:49:28.991Z,86.17
2023-05-02T03:51:56.606Z,85.63
2023-05-02T03:54:32.767Z,85.51
2023-05-02T03:57:01.094Z,85.22
2023-05-02T03:59:35.377Z,84.90
2023-05-02T04:02:11.479Z,84.41
2023-05-02T04:04:46.069Z,84.26
2023-05-02T04:07:19.515Z,84.20
2023-05-02T04:09:57.526Z,83.64
2023-05-02T04:12:27.773Z,83.16
2023-05-02T04:14:55.833Z,82.69
2023-05-02T04:17:27.318Z,82.45
2023-05-02T04:19:54.309Z,81.92
2023-05-02T04:22:27.880Z,81.05
2023-05-02T04:25:05.245Z,80.64
2023-05-02T04:27:34.528Z,80.02
2023-05-02T04:30:02.252Z,79.71
2023-05-02T04:32:32.178Z,79.29
2023-05-02T04:35:03.609Z,78.80
2023-05-02T04:37:33.640Z,78.37
2023-05-02T04:40:03.472Z,77.66
2023-05-02T04:42:38.358Z,77.10
2023-05-02T04:45:15.812Z,76.46
2023-05-02T04:47:44.681Z,75.44
2023-05-02T04:50:12.032Z,74.79
2023-05-02T04:52:39.066Z,74.43
2023-05-02T04:55:07.161Z,73.96
2023-05-02T04:57:34.861Z,73.36
2023-05-02T05:00:03.643Z,72.60
2023-05-02T05:02:35.199Z,71.81
2023-05-02T05:05:03.394Z,71.44
2023-05-02T05:07:33.184Z,71.38
2023-05-02T05:10:00.946Z,70.72
2023-05-02T05:12:33.400Z,70.44
2023-05-02T05:15:03.186Z,69.60
2023-05-02T05:17:33.446Z,69.45
2023-05-02T05:20:02.504Z,67.71
2023-05-02T05:22:31.862Z,64.68
2023-05-02T05:25:00.282Z,64.27
2023-05-02T05:27:36.261Z,64.71
2023-05-02T05:30:10.242Z,64.13
2023-05-02T05:32:38.898Z,64.18
2023-05-02T05:35:06.447Z,63.70
2023-05-02T05:37:39.660Z,62.32
2023-05-02T05:40:09.778Z,61.13
2023-05-02T05:42:38.226Z,60.23
2023-05-02T05:45:14.275Z,59.41
2023-05-02T05:47:44.727Z,58.97
2023-05-02T05:50:24.044Z,56.22
2023-05-02T05:52:53.668Z,55.67
2023-05-02T05:55:21.072Z,53.48
2023-05-02T05:57:50.794Z,52.74
2023-05-02T06:00:18.163Z,53.08
2023-05-02T06:02:49.308Z,52.50
2023-05-02T06:05:28.356Z,52.75
2023-05-02T06:07:56.541Z,50.04
2023-05-02T06:10:23.812Z,48.54
2023-05-02T06:12:54.790Z,48.61
2023-05-02T06:15:26.688Z,49.35
2023-05-02T06:17:56.051Z,50.50
2023-05-02T06:20:23.063Z,48.51
2023-05-02T06:22:52.571Z,45.38
2023-05-02T06:25:27.122Z,46.81
2023-05-02T06:28:40.880Z,48.78
2023-05-02T06:31:09.520Z,48.23
2023-05-02T06:33:37.015Z,47.01
2023-05-02T17:52:07.142Z,26.95
2023-05-02T17:54:37.010Z,29.50
2023-05-02T17:57:04.771Z,31.47
2023-05-02T17:59:37.178Z,32.69
2023-05-02T18:02:04.323Z,33.61
2023-05-02T18:04:31.563Z,33.93
2023-05-02T18:06:58.760Z,34.38
2023-05-02T18:09:27.010Z,34.63
2023-05-02T18:11:54.280Z,34.79
2023-05-02T18:14:26.581Z,34.96
2023-05-02T18:16:53.561Z,35.14
2023-05-02T18:19:20.656Z,35.15
2023-05-02T18:21:47.861Z,35.15
2023-05-02T18:24:14.997Z,35.54
2023-05-02T18:26:42.062Z,35.52
2023-05-02T18:29:09.440Z,36.13
2023-05-02T18:31:40.360Z,36.16
2023-05-02T18:34:08.309Z,36.11
2023-05-02T18:36:39.328Z,36.27
2023-05-02T18:39:09.378Z,36.47
2023-05-02T18:41:36.397Z,36.68
2023-05-02T18:44:08.088Z,36.63
2023-05-02T18:46:35.426Z,36.95
2023-05-02T18:49:03.495Z,37.05
2023-05-02T18:51:31.282Z,37.25
2023-05-02T18:54:00.629Z,37.83
2023-05-02T18:56:28.441Z,37.75
2023-05-02T18:58:56.764Z,38.53
2023-05-02T19:01:24.568Z,38.60
2023-05-02T19:04:02.234Z,38.60
2023-05-02T19:06:30.106Z,38.76
2023-05-02T19:08:59.854Z,38.72
2023-05-02T19:11:26.986Z,39.27
2023-05-02T19:14:01.440Z,39.63
2023-05-02T19:16:29.287Z,39.57
2023-05-02T19:18:57.148Z,39.85
2023-05-02T19:21:24.463Z,40.07
2023-05-02T19:24:02.153Z,40.12
2023-05-02T19:26:29.343Z,39.99
2023-05-02T19:28:59.632Z,40.23
2023-05-02T19:31:29.442Z,40.06
2023-05-02T19:33:56.526Z,40.63
2023-05-02T19:36:25.437Z,40.63
2023-05-02T19:38:54.150Z,40.79
2023-05-02T19:41:25.726Z,40.93
2023-05-02T19:43:52.974Z,41.37
2023-05-02T19:46:20.070Z,41.38
2023-05-02T19:48:48.246Z,41.63
2023-05-02T19:51:15.383Z,41.79
2023-05-02T19:53:48.058Z,41.79
2023-05-02T19:56:14.980Z,41.99
2023-05-02T19:58:41.948Z,41.94
2023-05-02T20:01:09.017Z,42.10
2023-05-02T20:03:36.502Z,42.13
2023-05-02T20:06:12.646Z,42.26
2023-05-02T20:08:58.375Z,42.53
2023-05-02T20:11:27.697Z,42.65
2023-05-02T20:13:54.925Z,42.67
2023-05-02T20:16:22.204Z,43.09
2023-05-02T20:18:51.156Z,43.05
2023-05-02T20:21:20.023Z,43.36
2023-05-02T20:23:47.083Z,43.48
2023-05-02T20:26:15.872Z,43.52
2023-05-02T20:28:46.731Z,43.75
2023-05-02T20:31:16.548Z,44.13
2023-05-02T20:34:02.368Z,43.96
2023-05-02T20:36:31.000Z,44.26
2023-05-02T20:39:00.527Z,44.57
2023-05-02T20:41:27.537Z,44.63
2023-05-02T20:43:55.301Z,44.81
2023-05-02T20:46:24.457Z,44.69
2023-05-02T20:48:54.505Z,44.81
2023-05-02T20:51:24.555Z,44.86
2023-05-02T20:53:51.662Z,44.82
2023-05-02T20:56:18.663Z,44.50
2023-05-02T20:58:45.770Z,44.62
2023-05-02T21:01:15.374Z,44.61
2023-05-02T21:04:04.193Z,44.92
2023-05-02T21:06:32.756Z,45.41
2023-05-02T21:09:02.377Z,45.47
2023-05-02T21:11:36.079Z,45.70
2023-05-02T21:14:06.014Z,45.79
2023-05-02T21:16:33.434Z,45.84
2023-05-02T21:19:00.751Z,46.14
2023-05-02T21:21:27.728Z,45.98
2023-05-02T21:23:54.847Z,45.68
2023-05-02T21:26:26.908Z,46.00
2023-05-02T21:28:53.947Z,46.17
2023-05-02T21:31:20.988Z,46.37
2023-05-02T21:33:48.326Z,46.52
2023-05-02T21:36:15.371Z,46.50
2023-05-02T21:38:42.308Z,46.62
2023-05-02T21:41:12.307Z,46.40
2023-05-02T21:43:44.887Z,46.77
2023-05-02T21:46:12.171Z,46.86
2023-05-02T21:48:44.160Z,46.87
2023-05-02T21:51:11.765Z,47.23
2023-05-02T21:53:38.874Z,47.29
2023-05-02T21:56:09.940Z,47.30
2023-05-02T21:58:39.591Z,47.32
2023-05-02T22:01:06.699Z,47.33
2023-05-02T22:03:34.737Z,47.56
2023-05-02T22:06:06.226Z,47.54
2023-05-02T22:08:37.367Z,48.11
2023-05-02T22:11:10.542Z,47.98
2023-05-02T22:13:37.822Z,48.19
2023-05-02T22:16:06.666Z,48.30
2023-05-02T22:18:36.372Z,48.28
2023-05-02T22:21:04.321Z,48.66
2023-05-02T22:23:31.342Z,48.64
2023-05-02T22:26:00.797Z,49.00
2023-05-02T22:28:27.847Z,49.21
2023-05-02T22:30:54.984Z,49.48
2023-05-02T22:33:21.952Z,49.07
2023-05-02T22:35:49.113Z,49.30
2023-05-02T22:38:19.522Z,49.32
2023-05-02T22:40:46.717Z,49.26
2023-05-02T22:43:13.893Z,49.55
2023-05-02T22:45:40.909Z,49.72
2023-05-02T22:48:08.062Z,49.89
2023-05-02T22:50:38.047Z,49.81
2023-05-02T22:53:05.188Z,50.07
2023-05-02T22:55:32.181Z,50.53
2023-05-02T22:57:59.296Z,50.52
2023-05-02T23:00:26.261Z,50.98
2023-05-02T23:02:53.384Z,50.81
2023-05-02T23:05:23.095Z,50.69
2023-05-02T23:07:50.033Z,50.28
2023-05-02T23:10:17.238Z,51.10
2023-05-02T23:12:44.321Z,51.24
2023-05-02T23:15:11.880Z,51.30
2023-05-02T23:17:40.104Z,51.25
2023-05-02T23:20:10.424Z,51.16
2023-05-02T23:22:45.596Z,51.08
2023-05-02T23:25:18.884Z,51.28
2023-05-02T23:27:45.897Z,51.15
2023-05-02T23:30:13.032Z,51.31
2023-05-02T23:32:40.301Z,51.15
2023-05-02T23:35:07.863Z,50.81
2023-05-02T23:37:35.125Z,50.78
2023-05-02T23:40:02.255Z,50.98
2023-05-02T23:42:34.372Z,51.07
2023-05-02T23:45:03.090Z,51.35
2023-05-02T23:47:31.913Z,51.45
2023-05-02T23:49:58.873Z,51.42
2023-05-02T23:52:27.161Z,51.69
2023-05-02T23:55:04.366Z,52.01
2023-05-02T23:57:31.833Z,52.18
